<?xml version="1.0" encoding="UTF-8" standalone="no" ?>
<gpx xmlns="http://www.topografix.com/GPX/1/1" xmlns:xsi="http://www.w3.org/2001/XMLSchema-instance" xsi:schemaLocation="http://www.topografix.com/GPX/1/1 http://www.topografix.com/GPX/1/1/gpx.xsd" version="1.1" creator="VisuGPX - https://www.visugpx.com">
  <metadata>
    <name>Col d' Izoard Refuge</name>
    <desc><![CDATA[[img][url][i][b][/b][/i][/url][/img]]]></desc>
  </metadata>
  <trk>
    <name><![CDATA[Col d' Izoard Refuge]]></name>
    <trkseg>
      <trkpt lat="44.85622" lon="6.72676">
        <ele>1745.1</ele>
        <time>2019-12-10T09:00:41Z</time>
      </trkpt>
      <trkpt lat="44.85587" lon="6.72701">
        <ele>1745.5</ele>
        <time>2019-12-10T09:01:22Z</time>
      </trkpt>
      <trkpt lat="44.85526" lon="6.72727">
        <ele>1748</ele>
        <time>2019-12-10T09:02:28Z</time>
      </trkpt>
      <trkpt lat="44.8547" lon="6.72707">
        <ele>1750.7</ele>
        <time>2019-12-10T09:03:29Z</time>
      </trkpt>
      <trkpt lat="44.85437" lon="6.7268">
        <ele>1751.7</ele>
        <time>2019-12-10T09:04:09Z</time>
      </trkpt>
      <trkpt lat="44.85404" lon="6.72602">
        <ele>1754.8</ele>
        <time>2019-12-10T09:05:16Z</time>
      </trkpt>
      <trkpt lat="44.85367" lon="6.72546">
        <ele>1760.7</ele>
        <time>2019-12-10T09:06:13Z</time>
      </trkpt>
      <trkpt lat="44.85294" lon="6.72459">
        <ele>1771.1</ele>
        <time>2019-12-10T09:07:53Z</time>
      </trkpt>
      <trkpt lat="44.85233" lon="6.72456">
        <ele>1774.3</ele>
        <time>2019-12-10T09:08:57Z</time>
      </trkpt>
      <trkpt lat="44.85117" lon="6.72474">
        <ele>1785.7</ele>
        <time>2019-12-10T09:11:00Z</time>
      </trkpt>
      <trkpt lat="44.8504" lon="6.72509">
        <ele>1791.4</ele>
        <time>2019-12-10T09:12:25Z</time>
      </trkpt>
      <trkpt lat="44.85008" lon="6.72502">
        <ele>1795.4</ele>
        <time>2019-12-10T09:12:58Z</time>
      </trkpt>
      <trkpt lat="44.8497" lon="6.72482">
        <ele>1806.6</ele>
        <time>2019-12-10T09:13:40Z</time>
      </trkpt>
      <trkpt lat="44.84869" lon="6.72473">
        <ele>1817.8</ele>
        <time>2019-12-10T09:15:26Z</time>
      </trkpt>
      <trkpt lat="44.84777" lon="6.72475">
        <ele>1829.1</ele>
        <time>2019-12-10T09:17:02Z</time>
      </trkpt>
      <trkpt lat="44.84736" lon="6.72497">
        <ele>1831.8</ele>
        <time>2019-12-10T09:17:47Z</time>
      </trkpt>
      <trkpt lat="44.84697" lon="6.72498">
        <ele>1838.9</ele>
        <time>2019-12-10T09:18:28Z</time>
      </trkpt>
      <trkpt lat="44.84668" lon="6.72492">
        <ele>1840.2</ele>
        <time>2019-12-10T09:18:59Z</time>
      </trkpt>
      <trkpt lat="44.84652" lon="6.72486">
        <ele>1846.2</ele>
        <time>2019-12-10T09:19:15Z</time>
      </trkpt>
      <trkpt lat="44.84636" lon="6.72474">
        <ele>1849.2</ele>
        <time>2019-12-10T09:19:34Z</time>
      </trkpt>
      <trkpt lat="44.84615" lon="6.72454">
        <ele>1852.3</ele>
        <time>2019-12-10T09:20:01Z</time>
      </trkpt>
      <trkpt lat="44.8457" lon="6.7245">
        <ele>1856.9</ele>
        <time>2019-12-10T09:20:47Z</time>
      </trkpt>
      <trkpt lat="44.84562" lon="6.72439">
        <ele>1857.9</ele>
        <time>2019-12-10T09:20:58Z</time>
      </trkpt>
      <trkpt lat="44.84551" lon="6.72422">
        <ele>1858.6</ele>
        <time>2019-12-10T09:21:15Z</time>
      </trkpt>
      <trkpt lat="44.84536" lon="6.72422">
        <ele>1858.4</ele>
        <time>2019-12-10T09:21:31Z</time>
      </trkpt>
      <trkpt lat="44.84508" lon="6.72413">
        <ele>1866</ele>
        <time>2019-12-10T09:22:00Z</time>
      </trkpt>
      <trkpt lat="44.84482" lon="6.72395">
        <ele>1870.6</ele>
        <time>2019-12-10T09:22:30Z</time>
      </trkpt>
      <trkpt lat="44.84423" lon="6.72364">
        <ele>1877.5</ele>
        <time>2019-12-10T09:23:36Z</time>
      </trkpt>
      <trkpt lat="44.84327" lon="6.72369">
        <ele>1884.6</ele>
        <time>2019-12-10T09:25:17Z</time>
      </trkpt>
      <trkpt lat="44.8428" lon="6.72355">
        <ele>1888.5</ele>
        <time>2019-12-10T09:26:07Z</time>
      </trkpt>
      <trkpt lat="44.84226" lon="6.72375">
        <ele>1892.1</ele>
        <time>2019-12-10T09:27:05Z</time>
      </trkpt>
      <trkpt lat="44.84183" lon="6.72365">
        <ele>1896.3</ele>
        <time>2019-12-10T09:27:50Z</time>
      </trkpt>
      <trkpt lat="44.8409" lon="6.7236">
        <ele>1906.8</ele>
        <time>2019-12-10T09:29:28Z</time>
      </trkpt>
      <trkpt lat="44.83976" lon="6.72347">
        <ele>1920.6</ele>
        <time>2019-12-10T09:31:28Z</time>
      </trkpt>
      <trkpt lat="44.8394" lon="6.72344">
        <ele>1923.9</ele>
        <time>2019-12-10T09:32:06Z</time>
      </trkpt>
      <trkpt lat="44.83885" lon="6.72348">
        <ele>1930.4</ele>
        <time>2019-12-10T09:33:03Z</time>
      </trkpt>
      <trkpt lat="44.83854" lon="6.72353">
        <ele>1932</ele>
        <time>2019-12-10T09:33:35Z</time>
      </trkpt>
      <trkpt lat="44.83831" lon="6.72356">
        <ele>1937</ele>
        <time>2019-12-10T09:33:59Z</time>
      </trkpt>
      <trkpt lat="44.83808" lon="6.7234">
        <ele>1937.8</ele>
        <time>2019-12-10T09:34:26Z</time>
      </trkpt>
      <trkpt lat="44.83787" lon="6.72326">
        <ele>1949.5</ele>
        <time>2019-12-10T09:34:50Z</time>
      </trkpt>
      <trkpt lat="44.83752" lon="6.72322">
        <ele>1947.2</ele>
        <time>2019-12-10T09:35:26Z</time>
      </trkpt>
      <trkpt lat="44.83731" lon="6.72326">
        <ele>1950.6</ele>
        <time>2019-12-10T09:35:48Z</time>
      </trkpt>
      <trkpt lat="44.83715" lon="6.723">
        <ele>1955.8</ele>
        <time>2019-12-10T09:36:14Z</time>
      </trkpt>
      <trkpt lat="44.83703" lon="6.72285">
        <ele>1958</ele>
        <time>2019-12-10T09:36:31Z</time>
      </trkpt>
      <trkpt lat="44.83686" lon="6.72273">
        <ele>1960.1</ele>
        <time>2019-12-10T09:36:50Z</time>
      </trkpt>
      <trkpt lat="44.83697" lon="6.72264">
        <ele>1960.3</ele>
        <time>2019-12-10T09:37:03Z</time>
      </trkpt>
      <trkpt lat="44.83707" lon="6.72256">
        <ele>1960.6</ele>
        <time>2019-12-10T09:37:15Z</time>
      </trkpt>
      <trkpt lat="44.83695" lon="6.72247">
        <ele>1976.5</ele>
        <time>2019-12-10T09:37:29Z</time>
      </trkpt>
      <trkpt lat="44.83667" lon="6.7223">
        <ele>1976.5</ele>
        <time>2019-12-10T09:38:00Z</time>
      </trkpt>
      <trkpt lat="44.83643" lon="6.72211">
        <ele>1981.2</ele>
        <time>2019-12-10T09:38:29Z</time>
      </trkpt>
      <trkpt lat="44.83628" lon="6.72202">
        <ele>1982.4</ele>
        <time>2019-12-10T09:38:46Z</time>
      </trkpt>
      <trkpt lat="44.83612" lon="6.7219">
        <ele>1983.5</ele>
        <time>2019-12-10T09:39:04Z</time>
      </trkpt>
      <trkpt lat="44.83569" lon="6.72189">
        <ele>1990.9</ele>
        <time>2019-12-10T09:39:49Z</time>
      </trkpt>
      <trkpt lat="44.83539" lon="6.72209">
        <ele>1993.8</ele>
        <time>2019-12-10T09:40:23Z</time>
      </trkpt>
      <trkpt lat="44.83523" lon="6.7226">
        <ele>1993</ele>
        <time>2019-12-10T09:41:04Z</time>
      </trkpt>
      <trkpt lat="44.83513" lon="6.72306">
        <ele>1992.4</ele>
        <time>2019-12-10T09:41:40Z</time>
      </trkpt>
      <trkpt lat="44.83503" lon="6.72335">
        <ele>2000.8</ele>
        <time>2019-12-10T09:42:04Z</time>
      </trkpt>
      <trkpt lat="44.83489" lon="6.72327">
        <ele>2009.1</ele>
        <time>2019-12-10T09:42:20Z</time>
      </trkpt>
      <trkpt lat="44.83495" lon="6.72273">
        <ele>2012.2</ele>
        <time>2019-12-10T09:43:01Z</time>
      </trkpt>
      <trkpt lat="44.83494" lon="6.72208">
        <ele>2018.7</ele>
        <time>2019-12-10T09:43:49Z</time>
      </trkpt>
      <trkpt lat="44.8351" lon="6.7216">
        <ele>2008.2</ele>
        <time>2019-12-10T09:44:28Z</time>
      </trkpt>
      <trkpt lat="44.83505" lon="6.72142">
        <ele>2010.6</ele>
        <time>2019-12-10T09:44:42Z</time>
      </trkpt>
      <trkpt lat="44.8349" lon="6.72147">
        <ele>2028.4</ele>
        <time>2019-12-10T09:44:58Z</time>
      </trkpt>
      <trkpt lat="44.83478" lon="6.72199">
        <ele>2021.2</ele>
        <time>2019-12-10T09:45:38Z</time>
      </trkpt>
      <trkpt lat="44.83474" lon="6.72231">
        <ele>2020.2</ele>
        <time>2019-12-10T09:46:02Z</time>
      </trkpt>
      <trkpt lat="44.83464" lon="6.72281">
        <ele>2017.6</ele>
        <time>2019-12-10T09:46:41Z</time>
      </trkpt>
      <trkpt lat="44.83455" lon="6.72317">
        <ele>2018</ele>
        <time>2019-12-10T09:47:09Z</time>
      </trkpt>
      <trkpt lat="44.83409" lon="6.72369">
        <ele>2036</ele>
        <time>2019-12-10T09:48:11Z</time>
      </trkpt>
      <trkpt lat="44.83394" lon="6.72359">
        <ele>2036.6</ele>
        <time>2019-12-10T09:48:28Z</time>
      </trkpt>
      <trkpt lat="44.83403" lon="6.72317">
        <ele>2036.2</ele>
        <time>2019-12-10T09:49:00Z</time>
      </trkpt>
      <trkpt lat="44.83415" lon="6.72294">
        <ele>2039</ele>
        <time>2019-12-10T09:49:20Z</time>
      </trkpt>
      <trkpt lat="44.83427" lon="6.7226">
        <ele>2029.4</ele>
        <time>2019-12-10T09:49:48Z</time>
      </trkpt>
      <trkpt lat="44.83415" lon="6.72238">
        <ele>2046.1</ele>
        <time>2019-12-10T09:50:08Z</time>
      </trkpt>
      <trkpt lat="44.83396" lon="6.72272">
        <ele>2041.8</ele>
        <time>2019-12-10T09:50:40Z</time>
      </trkpt>
      <trkpt lat="44.8336" lon="6.72307">
        <ele>2043.9</ele>
        <time>2019-12-10T09:51:26Z</time>
      </trkpt>
      <trkpt lat="44.83325" lon="6.72329">
        <ele>2053.3</ele>
        <time>2019-12-10T09:52:06Z</time>
      </trkpt>
      <trkpt lat="44.83299" lon="6.72364">
        <ele>2062.9</ele>
        <time>2019-12-10T09:52:44Z</time>
      </trkpt>
      <trkpt lat="44.83291" lon="6.72354">
        <ele>2063.9</ele>
        <time>2019-12-10T09:52:54Z</time>
      </trkpt>
      <trkpt lat="44.83289" lon="6.72341">
        <ele>2063.9</ele>
        <time>2019-12-10T09:53:03Z</time>
      </trkpt>
      <trkpt lat="44.83297" lon="6.72306">
        <ele>2065.9</ele>
        <time>2019-12-10T09:53:30Z</time>
      </trkpt>
      <trkpt lat="44.83321" lon="6.72278">
        <ele>2065.1</ele>
        <time>2019-12-10T09:54:02Z</time>
      </trkpt>
      <trkpt lat="44.83346" lon="6.72248">
        <ele>2061.3</ele>
        <time>2019-12-10T09:54:37Z</time>
      </trkpt>
      <trkpt lat="44.83374" lon="6.72227">
        <ele>2058.7</ele>
        <time>2019-12-10T09:55:10Z</time>
      </trkpt>
      <trkpt lat="44.83382" lon="6.72212">
        <ele>2059</ele>
        <time>2019-12-10T09:55:24Z</time>
      </trkpt>
      <trkpt lat="44.83374" lon="6.72195">
        <ele>2062.6</ele>
        <time>2019-12-10T09:55:38Z</time>
      </trkpt>
      <trkpt lat="44.83361" lon="6.72202">
        <ele>2064.4</ele>
        <time>2019-12-10T09:55:52Z</time>
      </trkpt>
      <trkpt lat="44.83345" lon="6.72223">
        <ele>2063</ele>
        <time>2019-12-10T09:56:15Z</time>
      </trkpt>
      <trkpt lat="44.83334" lon="6.72236">
        <ele>2062.3</ele>
        <time>2019-12-10T09:56:30Z</time>
      </trkpt>
      <trkpt lat="44.83227" lon="6.72281">
        <ele>2095.7</ele>
        <time>2019-12-10T09:58:28Z</time>
      </trkpt>
      <trkpt lat="44.832" lon="6.72305">
        <ele>2098.3</ele>
        <time>2019-12-10T09:59:01Z</time>
      </trkpt>
      <trkpt lat="44.83194" lon="6.72332">
        <ele>2098.1</ele>
        <time>2019-12-10T09:59:21Z</time>
      </trkpt>
      <trkpt lat="44.83212" lon="6.72354">
        <ele>2091.3</ele>
        <time>2019-12-10T09:59:45Z</time>
      </trkpt>
      <trkpt lat="44.83217" lon="6.72381">
        <ele>2091.7</ele>
        <time>2019-12-10T10:00:05Z</time>
      </trkpt>
      <trkpt lat="44.8322" lon="6.72418">
        <ele>2098.8</ele>
        <time>2019-12-10T10:00:32Z</time>
      </trkpt>
      <trkpt lat="44.83204" lon="6.72432">
        <ele>2103</ele>
        <time>2019-12-10T10:00:52Z</time>
      </trkpt>
      <trkpt lat="44.83203" lon="6.72409">
        <ele>2095</ele>
        <time>2019-12-10T10:01:08Z</time>
      </trkpt>
      <trkpt lat="44.83204" lon="6.72381">
        <ele>2093.7</ele>
        <time>2019-12-10T10:01:28Z</time>
      </trkpt>
      <trkpt lat="44.83188" lon="6.72354">
        <ele>2095.9</ele>
        <time>2019-12-10T10:01:54Z</time>
      </trkpt>
      <trkpt lat="44.83175" lon="6.72351">
        <ele>2098.2</ele>
        <time>2019-12-10T10:02:07Z</time>
      </trkpt>
      <trkpt lat="44.83175" lon="6.72381">
        <ele>2097.4</ele>
        <time>2019-12-10T10:02:29Z</time>
      </trkpt>
      <trkpt lat="44.8319" lon="6.72409">
        <ele>2097.9</ele>
        <time>2019-12-10T10:02:55Z</time>
      </trkpt>
      <trkpt lat="44.83165" lon="6.72435">
        <ele>2112.6</ele>
        <time>2019-12-10T10:03:27Z</time>
      </trkpt>
      <trkpt lat="44.83132" lon="6.7243">
        <ele>2115.7</ele>
        <time>2019-12-10T10:04:02Z</time>
      </trkpt>
      <trkpt lat="44.83081" lon="6.72412">
        <ele>2121.7</ele>
        <time>2019-12-10T10:04:57Z</time>
      </trkpt>
      <trkpt lat="44.83054" lon="6.72424">
        <ele>2125.6</ele>
        <time>2019-12-10T10:05:26Z</time>
      </trkpt>
      <trkpt lat="44.83029" lon="6.72444">
        <ele>2128.2</ele>
        <time>2019-12-10T10:05:56Z</time>
      </trkpt>
      <trkpt lat="44.83012" lon="6.72461">
        <ele>2129.5</ele>
        <time>2019-12-10T10:06:17Z</time>
      </trkpt>
      <trkpt lat="44.83007" lon="6.72448">
        <ele>2129.3</ele>
        <time>2019-12-10T10:06:27Z</time>
      </trkpt>
      <trkpt lat="44.83024" lon="6.72422">
        <ele>2128.6</ele>
        <time>2019-12-10T10:06:52Z</time>
      </trkpt>
      <trkpt lat="44.83049" lon="6.72398">
        <ele>2127.3</ele>
        <time>2019-12-10T10:07:24Z</time>
      </trkpt>
      <trkpt lat="44.83061" lon="6.72361">
        <ele>2128</ele>
        <time>2019-12-10T10:07:54Z</time>
      </trkpt>
      <trkpt lat="44.83054" lon="6.72338">
        <ele>2128.8</ele>
        <time>2019-12-10T10:08:12Z</time>
      </trkpt>
      <trkpt lat="44.83035" lon="6.72318">
        <ele>2138</ele>
        <time>2019-12-10T10:08:37Z</time>
      </trkpt>
      <trkpt lat="44.83017" lon="6.72319">
        <ele>2138.9</ele>
        <time>2019-12-10T10:08:55Z</time>
      </trkpt>
      <trkpt lat="44.82984" lon="6.72344">
        <ele>2140</ele>
        <time>2019-12-10T10:09:35Z</time>
      </trkpt>
      <trkpt lat="44.82904" lon="6.72411">
        <ele>2148.5</ele>
        <time>2019-12-10T10:11:12Z</time>
      </trkpt>
      <trkpt lat="44.82802" lon="6.72481">
        <ele>2158.2</ele>
        <time>2019-12-10T10:13:11Z</time>
      </trkpt>
      <trkpt lat="44.82769" lon="6.72512">
        <ele>2160.3</ele>
        <time>2019-12-10T10:13:52Z</time>
      </trkpt>
      <trkpt lat="44.82734" lon="6.72528">
        <ele>2172.2</ele>
        <time>2019-12-10T10:14:31Z</time>
      </trkpt>
      <trkpt lat="44.82713" lon="6.72554">
        <ele>2175.4</ele>
        <time>2019-12-10T10:15:00Z</time>
      </trkpt>
      <trkpt lat="44.827" lon="6.72588">
        <ele>2178.9</ele>
        <time>2019-12-10T10:15:29Z</time>
      </trkpt>
      <trkpt lat="44.82691" lon="6.72608">
        <ele>2179.9</ele>
        <time>2019-12-10T10:15:46Z</time>
      </trkpt>
      <trkpt lat="44.82654" lon="6.72649">
        <ele>2191</ele>
        <time>2019-12-10T10:16:35Z</time>
      </trkpt>
      <trkpt lat="44.82636" lon="6.72698">
        <ele>2194</ele>
        <time>2019-12-10T10:17:15Z</time>
      </trkpt>
      <trkpt lat="44.82578" lon="6.72774">
        <ele>2206.5</ele>
        <time>2019-12-10T10:18:39Z</time>
      </trkpt>
      <trkpt lat="44.82558" lon="6.72829">
        <ele>2209.9</ele>
        <time>2019-12-10T10:19:24Z</time>
      </trkpt>
      <trkpt lat="44.82547" lon="6.72869">
        <ele>2215.9</ele>
        <time>2019-12-10T10:19:55Z</time>
      </trkpt>
      <trkpt lat="44.82522" lon="6.72899">
        <ele>2219.3</ele>
        <time>2019-12-10T10:20:30Z</time>
      </trkpt>
      <trkpt lat="44.82489" lon="6.72935">
        <ele>2229.3</ele>
        <time>2019-12-10T10:21:14Z</time>
      </trkpt>
      <trkpt lat="44.82465" lon="6.72957">
        <ele>2232.5</ele>
        <time>2019-12-10T10:21:43Z</time>
      </trkpt>
      <trkpt lat="44.82451" lon="6.72984">
        <ele>2233.4</ele>
        <time>2019-12-10T10:22:08Z</time>
      </trkpt>
      <trkpt lat="44.82427" lon="6.73">
        <ele>2236</ele>
        <time>2019-12-10T10:22:35Z</time>
      </trkpt>
      <trkpt lat="44.82418" lon="6.73014">
        <ele>2236.1</ele>
        <time>2019-12-10T10:22:49Z</time>
      </trkpt>
      <trkpt lat="44.82417" lon="6.7304">
        <ele>2245</ele>
        <time>2019-12-10T10:23:08Z</time>
      </trkpt>
      <trkpt lat="44.82418" lon="6.73059">
        <ele>2237.8</ele>
        <time>2019-12-10T10:23:22Z</time>
      </trkpt>
      <trkpt lat="44.82412" lon="6.73096">
        <ele>2245.9</ele>
        <time>2019-12-10T10:23:50Z</time>
      </trkpt>
      <trkpt lat="44.82408" lon="6.7312">
        <ele>2249.3</ele>
        <time>2019-12-10T10:24:08Z</time>
      </trkpt>
      <trkpt lat="44.82398" lon="6.73137">
        <ele>2250.6</ele>
        <time>2019-12-10T10:24:24Z</time>
      </trkpt>
      <trkpt lat="44.82375" lon="6.73139">
        <ele>2251.8</ele>
        <time>2019-12-10T10:24:48Z</time>
      </trkpt>
      <trkpt lat="44.82356" lon="6.73172">
        <ele>2258.5</ele>
        <time>2019-12-10T10:25:20Z</time>
      </trkpt>
      <trkpt lat="44.82353" lon="6.73195">
        <ele>2259.4</ele>
        <time>2019-12-10T10:25:37Z</time>
      </trkpt>
      <trkpt lat="44.82339" lon="6.73204">
        <ele>2260.2</ele>
        <time>2019-12-10T10:25:52Z</time>
      </trkpt>
      <trkpt lat="44.82334" lon="6.73239">
        <ele>2264.3</ele>
        <time>2019-12-10T10:26:18Z</time>
      </trkpt>
      <trkpt lat="44.8232" lon="6.73249">
        <ele>2268.2</ele>
        <time>2019-12-10T10:26:34Z</time>
      </trkpt>
      <trkpt lat="44.82309" lon="6.73254">
        <ele>2273.8</ele>
        <time>2019-12-10T10:26:47Z</time>
      </trkpt>
      <trkpt lat="44.82298" lon="6.73257">
        <ele>2275.6</ele>
        <time>2019-12-10T10:26:58Z</time>
      </trkpt>
      <trkpt lat="44.82295" lon="6.73272">
        <ele>2276.5</ele>
        <time>2019-12-10T10:27:09Z</time>
      </trkpt>
      <trkpt lat="44.82296" lon="6.73317">
        <ele>2278.5</ele>
        <time>2019-12-10T10:27:42Z</time>
      </trkpt>
      <trkpt lat="44.82288" lon="6.73296">
        <ele>2278.3</ele>
        <time>2019-12-10T10:27:59Z</time>
      </trkpt>
      <trkpt lat="44.82276" lon="6.73273">
        <ele>2278.2</ele>
        <time>2019-12-10T10:28:20Z</time>
      </trkpt>
      <trkpt lat="44.8229" lon="6.73252">
        <ele>2276.3</ele>
        <time>2019-12-10T10:28:42Z</time>
      </trkpt>
      <trkpt lat="44.82307" lon="6.73234">
        <ele>2269.2</ele>
        <time>2019-12-10T10:29:04Z</time>
      </trkpt>
      <trkpt lat="44.82324" lon="6.73215">
        <ele>2267.6</ele>
        <time>2019-12-10T10:29:26Z</time>
      </trkpt>
      <trkpt lat="44.82348" lon="6.73165">
        <ele>2255.1</ele>
        <time>2019-12-10T10:30:11Z</time>
      </trkpt>
      <trkpt lat="44.82378" lon="6.73118">
        <ele>2250.7</ele>
        <time>2019-12-10T10:30:58Z</time>
      </trkpt>
      <trkpt lat="44.8238" lon="6.73091">
        <ele>2249.6</ele>
        <time>2019-12-10T10:31:18Z</time>
      </trkpt>
      <trkpt lat="44.8241" lon="6.73073">
        <ele>2244.3</ele>
        <time>2019-12-10T10:31:52Z</time>
      </trkpt>
      <trkpt lat="44.8241" lon="6.73032">
        <ele>2244.8</ele>
        <time>2019-12-10T10:32:22Z</time>
      </trkpt>
      <trkpt lat="44.82418" lon="6.72981">
        <ele>2235.7</ele>
        <time>2019-12-10T10:33:01Z</time>
      </trkpt>
      <trkpt lat="44.82441" lon="6.72986">
        <ele>2234.4</ele>
        <time>2019-12-10T10:33:25Z</time>
      </trkpt>
      <trkpt lat="44.82447" lon="6.72945">
        <ele>2235</ele>
        <time>2019-12-10T10:33:56Z</time>
      </trkpt>
      <trkpt lat="44.82464" lon="6.72945">
        <ele>2232.9</ele>
        <time>2019-12-10T10:34:12Z</time>
      </trkpt>
      <trkpt lat="44.82484" lon="6.72892">
        <ele>2231.7</ele>
        <time>2019-12-10T10:34:57Z</time>
      </trkpt>
      <trkpt lat="44.82509" lon="6.7289">
        <ele>2219.8</ele>
        <time>2019-12-10T10:35:22Z</time>
      </trkpt>
      <trkpt lat="44.82522" lon="6.72848">
        <ele>2218.9</ele>
        <time>2019-12-10T10:35:56Z</time>
      </trkpt>
      <trkpt lat="44.82545" lon="6.72832">
        <ele>2212.8</ele>
        <time>2019-12-10T10:36:22Z</time>
      </trkpt>
      <trkpt lat="44.82557" lon="6.72772">
        <ele>2209.6</ele>
        <time>2019-12-10T10:37:08Z</time>
      </trkpt>
      <trkpt lat="44.8259" lon="6.7274">
        <ele>2196.7</ele>
        <time>2019-12-10T10:37:50Z</time>
      </trkpt>
      <trkpt lat="44.82604" lon="6.72686">
        <ele>2197.8</ele>
        <time>2019-12-10T10:38:32Z</time>
      </trkpt>
      <trkpt lat="44.82636" lon="6.72653">
        <ele>2194.1</ele>
        <time>2019-12-10T10:39:14Z</time>
      </trkpt>
      <trkpt lat="44.82651" lon="6.72624">
        <ele>2193.7</ele>
        <time>2019-12-10T10:39:40Z</time>
      </trkpt>
      <trkpt lat="44.82682" lon="6.72601">
        <ele>2181.2</ele>
        <time>2019-12-10T10:40:16Z</time>
      </trkpt>
      <trkpt lat="44.82689" lon="6.7257">
        <ele>2179.4</ele>
        <time>2019-12-10T10:40:40Z</time>
      </trkpt>
      <trkpt lat="44.82719" lon="6.7257">
        <ele>2173.9</ele>
        <time>2019-12-10T10:41:11Z</time>
      </trkpt>
      <trkpt lat="44.82743" lon="6.72542">
        <ele>2171.8</ele>
        <time>2019-12-10T10:41:44Z</time>
      </trkpt>
      <trkpt lat="44.82809" lon="6.7251">
        <ele>2156.2</ele>
        <time>2019-12-10T10:42:57Z</time>
      </trkpt>
      <trkpt lat="44.82858" lon="6.72464">
        <ele>2149.4</ele>
        <time>2019-12-10T10:43:58Z</time>
      </trkpt>
      <trkpt lat="44.82903" lon="6.72431">
        <ele>2146.2</ele>
        <time>2019-12-10T10:44:51Z</time>
      </trkpt>
      <trkpt lat="44.82938" lon="6.72386">
        <ele>2142.1</ele>
        <time>2019-12-10T10:45:41Z</time>
      </trkpt>
      <trkpt lat="44.83019" lon="6.72338">
        <ele>2133</ele>
        <time>2019-12-10T10:47:13Z</time>
      </trkpt>
      <trkpt lat="44.83043" lon="6.72342">
        <ele>2129.8</ele>
        <time>2019-12-10T10:47:38Z</time>
      </trkpt>
      <trkpt lat="44.83051" lon="6.72376">
        <ele>2128</ele>
        <time>2019-12-10T10:48:05Z</time>
      </trkpt>
      <trkpt lat="44.83033" lon="6.72403">
        <ele>2128.5</ele>
        <time>2019-12-10T10:48:32Z</time>
      </trkpt>
      <trkpt lat="44.83008" lon="6.72434">
        <ele>2129.4</ele>
        <time>2019-12-10T10:49:07Z</time>
      </trkpt>
      <trkpt lat="44.83001" lon="6.72458">
        <ele>2129.7</ele>
        <time>2019-12-10T10:49:26Z</time>
      </trkpt>
      <trkpt lat="44.83011" lon="6.72473">
        <ele>2130.2</ele>
        <time>2019-12-10T10:49:41Z</time>
      </trkpt>
      <trkpt lat="44.8302" lon="6.72474">
        <ele>2129.7</ele>
        <time>2019-12-10T10:49:51Z</time>
      </trkpt>
      <trkpt lat="44.83033" lon="6.72467">
        <ele>2128.5</ele>
        <time>2019-12-10T10:50:05Z</time>
      </trkpt>
      <trkpt lat="44.83051" lon="6.72445">
        <ele>2126.7</ele>
        <time>2019-12-10T10:50:30Z</time>
      </trkpt>
      <trkpt lat="44.83072" lon="6.72432">
        <ele>2124.1</ele>
        <time>2019-12-10T10:50:54Z</time>
      </trkpt>
      <trkpt lat="44.83084" lon="6.7243">
        <ele>2119.2</ele>
        <time>2019-12-10T10:51:06Z</time>
      </trkpt>
      <trkpt lat="44.83095" lon="6.72429">
        <ele>2118.8</ele>
        <time>2019-12-10T10:51:17Z</time>
      </trkpt>
      <trkpt lat="44.83124" lon="6.72439">
        <ele>2116.9</ele>
        <time>2019-12-10T10:51:48Z</time>
      </trkpt>
      <trkpt lat="44.8314" lon="6.72455">
        <ele>2116.7</ele>
        <time>2019-12-10T10:52:08Z</time>
      </trkpt>
      <trkpt lat="44.83161" lon="6.72451">
        <ele>2115.3</ele>
        <time>2019-12-10T10:52:30Z</time>
      </trkpt>
      <trkpt lat="44.83182" lon="6.72437">
        <ele>2105.6</ele>
        <time>2019-12-10T10:52:54Z</time>
      </trkpt>
      <trkpt lat="44.83193" lon="6.7243">
        <ele>2104.3</ele>
        <time>2019-12-10T10:53:07Z</time>
      </trkpt>
      <trkpt lat="44.83195" lon="6.72414">
        <ele>2096.9</ele>
        <time>2019-12-10T10:53:19Z</time>
      </trkpt>
      <trkpt lat="44.83194" lon="6.7239">
        <ele>2095.7</ele>
        <time>2019-12-10T10:53:37Z</time>
      </trkpt>
      <trkpt lat="44.83188" lon="6.7238">
        <ele>2095.9</ele>
        <time>2019-12-10T10:53:45Z</time>
      </trkpt>
      <trkpt lat="44.8318" lon="6.7237">
        <ele>2096.5</ele>
        <time>2019-12-10T10:53:56Z</time>
      </trkpt>
      <trkpt lat="44.8318" lon="6.72364">
        <ele>2096.6</ele>
        <time>2019-12-10T10:54:00Z</time>
      </trkpt>
      <trkpt lat="44.83188" lon="6.72364">
        <ele>2095.6</ele>
        <time>2019-12-10T10:54:08Z</time>
      </trkpt>
      <trkpt lat="44.83193" lon="6.72375">
        <ele>2095</ele>
        <time>2019-12-10T10:54:17Z</time>
      </trkpt>
      <trkpt lat="44.83203" lon="6.72387">
        <ele>2094</ele>
        <time>2019-12-10T10:54:30Z</time>
      </trkpt>
      <trkpt lat="44.83202" lon="6.72419">
        <ele>2102.6</ele>
        <time>2019-12-10T10:54:54Z</time>
      </trkpt>
      <trkpt lat="44.83215" lon="6.72432">
        <ele>2101</ele>
        <time>2019-12-10T10:55:10Z</time>
      </trkpt>
      <trkpt lat="44.83228" lon="6.72419">
        <ele>2096.8</ele>
        <time>2019-12-10T10:55:25Z</time>
      </trkpt>
      <trkpt lat="44.8323" lon="6.72395">
        <ele>2090.1</ele>
        <time>2019-12-10T10:55:43Z</time>
      </trkpt>
      <trkpt lat="44.83226" lon="6.72362">
        <ele>2089.2</ele>
        <time>2019-12-10T10:56:07Z</time>
      </trkpt>
      <trkpt lat="44.83214" lon="6.72337">
        <ele>2090</ele>
        <time>2019-12-10T10:56:29Z</time>
      </trkpt>
      <trkpt lat="44.83206" lon="6.72315">
        <ele>2096.3</ele>
        <time>2019-12-10T10:56:47Z</time>
      </trkpt>
      <trkpt lat="44.83234" lon="6.7229">
        <ele>2093.8</ele>
        <time>2019-12-10T10:57:21Z</time>
      </trkpt>
      <trkpt lat="44.83265" lon="6.72277">
        <ele>2074.8</ele>
        <time>2019-12-10T10:57:55Z</time>
      </trkpt>
      <trkpt lat="44.83292" lon="6.72266">
        <ele>2070.3</ele>
        <time>2019-12-10T10:58:24Z</time>
      </trkpt>
      <trkpt lat="44.83338" lon="6.72244">
        <ele>2061.9</ele>
        <time>2019-12-10T10:59:15Z</time>
      </trkpt>
      <trkpt lat="44.83353" lon="6.72226">
        <ele>2061.9</ele>
        <time>2019-12-10T10:59:35Z</time>
      </trkpt>
      <trkpt lat="44.83361" lon="6.72206">
        <ele>2063.7</ele>
        <time>2019-12-10T10:59:51Z</time>
      </trkpt>
      <trkpt lat="44.83369" lon="6.72206">
        <ele>2062.3</ele>
        <time>2019-12-10T10:59:59Z</time>
      </trkpt>
      <trkpt lat="44.83372" lon="6.72208">
        <ele>2061.4</ele>
        <time>2019-12-10T11:00:02Z</time>
      </trkpt>
      <trkpt lat="44.83373" lon="6.72212">
        <ele>2060.7</ele>
        <time>2019-12-10T11:00:04Z</time>
      </trkpt>
      <trkpt lat="44.83373" lon="6.72217">
        <ele>2060</ele>
        <time>2019-12-10T11:00:08Z</time>
      </trkpt>
      <trkpt lat="44.83367" lon="6.72225">
        <ele>2060.1</ele>
        <time>2019-12-10T11:00:17Z</time>
      </trkpt>
      <trkpt lat="44.83351" lon="6.7224">
        <ele>2061.1</ele>
        <time>2019-12-10T11:00:36Z</time>
      </trkpt>
      <trkpt lat="44.83344" lon="6.72247">
        <ele>2061.5</ele>
        <time>2019-12-10T11:00:45Z</time>
      </trkpt>
      <trkpt lat="44.83337" lon="6.72255">
        <ele>2058</ele>
        <time>2019-12-10T11:00:54Z</time>
      </trkpt>
      <trkpt lat="44.83324" lon="6.7227">
        <ele>2064.9</ele>
        <time>2019-12-10T11:01:11Z</time>
      </trkpt>
      <trkpt lat="44.83312" lon="6.72284">
        <ele>2065.8</ele>
        <time>2019-12-10T11:01:28Z</time>
      </trkpt>
      <trkpt lat="44.83305" lon="6.72289">
        <ele>2066.2</ele>
        <time>2019-12-10T11:01:35Z</time>
      </trkpt>
      <trkpt lat="44.83293" lon="6.72315">
        <ele>2066</ele>
        <time>2019-12-10T11:01:58Z</time>
      </trkpt>
      <trkpt lat="44.83287" lon="6.72339">
        <ele>2064.5</ele>
        <time>2019-12-10T11:02:17Z</time>
      </trkpt>
      <trkpt lat="44.83288" lon="6.72359">
        <ele>2064.7</ele>
        <time>2019-12-10T11:02:31Z</time>
      </trkpt>
      <trkpt lat="44.83291" lon="6.72366">
        <ele>2064.4</ele>
        <time>2019-12-10T11:02:36Z</time>
      </trkpt>
      <trkpt lat="44.83299" lon="6.72366">
        <ele>2062.9</ele>
        <time>2019-12-10T11:02:44Z</time>
      </trkpt>
      <trkpt lat="44.83307" lon="6.72365">
        <ele>2061.3</ele>
        <time>2019-12-10T11:02:52Z</time>
      </trkpt>
      <trkpt lat="44.83317" lon="6.72351">
        <ele>2057.6</ele>
        <time>2019-12-10T11:03:06Z</time>
      </trkpt>
      <trkpt lat="44.83326" lon="6.72334">
        <ele>2050.6</ele>
        <time>2019-12-10T11:03:22Z</time>
      </trkpt>
      <trkpt lat="44.8335" lon="6.72323">
        <ele>2044.4</ele>
        <time>2019-12-10T11:03:47Z</time>
      </trkpt>
      <trkpt lat="44.83369" lon="6.72311">
        <ele>2042.6</ele>
        <time>2019-12-10T11:04:08Z</time>
      </trkpt>
      <trkpt lat="44.83385" lon="6.72293">
        <ele>2041.9</ele>
        <time>2019-12-10T11:04:29Z</time>
      </trkpt>
      <trkpt lat="44.83394" lon="6.72286">
        <ele>2041.4</ele>
        <time>2019-12-10T11:04:39Z</time>
      </trkpt>
      <trkpt lat="44.83403" lon="6.72272">
        <ele>2041</ele>
        <time>2019-12-10T11:04:53Z</time>
      </trkpt>
      <trkpt lat="44.83411" lon="6.72257">
        <ele>2039.6</ele>
        <time>2019-12-10T11:05:07Z</time>
      </trkpt>
      <trkpt lat="44.83417" lon="6.72249">
        <ele>2037.4</ele>
        <time>2019-12-10T11:05:15Z</time>
      </trkpt>
      <trkpt lat="44.83424" lon="6.72257">
        <ele>2031.2</ele>
        <time>2019-12-10T11:05:24Z</time>
      </trkpt>
      <trkpt lat="44.83417" lon="6.72276">
        <ele>2026.1</ele>
        <time>2019-12-10T11:05:40Z</time>
      </trkpt>
      <trkpt lat="44.83413" lon="6.72288">
        <ele>2039.7</ele>
        <time>2019-12-10T11:05:50Z</time>
      </trkpt>
      <trkpt lat="44.83409" lon="6.72298">
        <ele>2038.9</ele>
        <time>2019-12-10T11:05:57Z</time>
      </trkpt>
      <trkpt lat="44.83394" lon="6.72339">
        <ele>2035.1</ele>
        <time>2019-12-10T11:06:31Z</time>
      </trkpt>
      <trkpt lat="44.83392" lon="6.72353">
        <ele>2036.4</ele>
        <time>2019-12-10T11:06:41Z</time>
      </trkpt>
      <trkpt lat="44.83395" lon="6.72366">
        <ele>2037</ele>
        <time>2019-12-10T11:06:51Z</time>
      </trkpt>
      <trkpt lat="44.834" lon="6.7237">
        <ele>2036.8</ele>
        <time>2019-12-10T11:06:56Z</time>
      </trkpt>
      <trkpt lat="44.83409" lon="6.72372">
        <ele>2036.2</ele>
        <time>2019-12-10T11:07:05Z</time>
      </trkpt>
      <trkpt lat="44.83424" lon="6.72361">
        <ele>2021.7</ele>
        <time>2019-12-10T11:07:22Z</time>
      </trkpt>
      <trkpt lat="44.83444" lon="6.72337">
        <ele>2019.6</ele>
        <time>2019-12-10T11:07:50Z</time>
      </trkpt>
      <trkpt lat="44.8346" lon="6.72307">
        <ele>2017.4</ele>
        <time>2019-12-10T11:08:17Z</time>
      </trkpt>
      <trkpt lat="44.83468" lon="6.72286">
        <ele>2016.7</ele>
        <time>2019-12-10T11:08:34Z</time>
      </trkpt>
      <trkpt lat="44.83473" lon="6.7226">
        <ele>2015.4</ele>
        <time>2019-12-10T11:08:54Z</time>
      </trkpt>
      <trkpt lat="44.83476" lon="6.72238">
        <ele>2019</ele>
        <time>2019-12-10T11:09:10Z</time>
      </trkpt>
      <trkpt lat="44.83479" lon="6.72211">
        <ele>2021</ele>
        <time>2019-12-10T11:09:30Z</time>
      </trkpt>
      <trkpt lat="44.83486" lon="6.72189">
        <ele>2018.8</ele>
        <time>2019-12-10T11:09:47Z</time>
      </trkpt>
      <trkpt lat="44.83491" lon="6.72165">
        <ele>2018.4</ele>
        <time>2019-12-10T11:10:06Z</time>
      </trkpt>
      <trkpt lat="44.83494" lon="6.72155">
        <ele>2022</ele>
        <time>2019-12-10T11:10:13Z</time>
      </trkpt>
      <trkpt lat="44.83499" lon="6.72149">
        <ele>2025.1</ele>
        <time>2019-12-10T11:10:19Z</time>
      </trkpt>
      <trkpt lat="44.83502" lon="6.7215">
        <ele>2009.3</ele>
        <time>2019-12-10T11:10:22Z</time>
      </trkpt>
      <trkpt lat="44.83505" lon="6.72158">
        <ele>2008.3</ele>
        <time>2019-12-10T11:10:28Z</time>
      </trkpt>
      <trkpt lat="44.83501" lon="6.72167">
        <ele>2006.3</ele>
        <time>2019-12-10T11:10:36Z</time>
      </trkpt>
      <trkpt lat="44.835" lon="6.7218">
        <ele>2014</ele>
        <time>2019-12-10T11:10:45Z</time>
      </trkpt>
      <trkpt lat="44.83494" lon="6.7219">
        <ele>2017.5</ele>
        <time>2019-12-10T11:10:55Z</time>
      </trkpt>
      <trkpt lat="44.83492" lon="6.72211">
        <ele>2018.7</ele>
        <time>2019-12-10T11:11:10Z</time>
      </trkpt>
      <trkpt lat="44.83493" lon="6.72239">
        <ele>2013</ele>
        <time>2019-12-10T11:11:30Z</time>
      </trkpt>
      <trkpt lat="44.83492" lon="6.72276">
        <ele>2012.9</ele>
        <time>2019-12-10T11:11:57Z</time>
      </trkpt>
      <trkpt lat="44.83487" lon="6.72321">
        <ele>2010.7</ele>
        <time>2019-12-10T11:12:31Z</time>
      </trkpt>
      <trkpt lat="44.83495" lon="6.72335">
        <ele>2005.9</ele>
        <time>2019-12-10T11:12:44Z</time>
      </trkpt>
      <trkpt lat="44.83507" lon="6.72336">
        <ele>1998.4</ele>
        <time>2019-12-10T11:12:57Z</time>
      </trkpt>
      <trkpt lat="44.83514" lon="6.72324">
        <ele>1994.8</ele>
        <time>2019-12-10T11:13:08Z</time>
      </trkpt>
      <trkpt lat="44.83516" lon="6.72309">
        <ele>1992.1</ele>
        <time>2019-12-10T11:13:19Z</time>
      </trkpt>
      <trkpt lat="44.83523" lon="6.72275">
        <ele>1991.5</ele>
        <time>2019-12-10T11:13:45Z</time>
      </trkpt>
      <trkpt lat="44.83534" lon="6.7224">
        <ele>1994.2</ele>
        <time>2019-12-10T11:14:13Z</time>
      </trkpt>
      <trkpt lat="44.83542" lon="6.72218">
        <ele>1992.9</ele>
        <time>2019-12-10T11:14:31Z</time>
      </trkpt>
      <trkpt lat="44.83553" lon="6.72204">
        <ele>1992.1</ele>
        <time>2019-12-10T11:14:46Z</time>
      </trkpt>
      <trkpt lat="44.8358" lon="6.72192">
        <ele>1990</ele>
        <time>2019-12-10T11:15:15Z</time>
      </trkpt>
      <trkpt lat="44.8361" lon="6.72184">
        <ele>1984.1</ele>
        <time>2019-12-10T11:15:47Z</time>
      </trkpt>
      <trkpt lat="44.83644" lon="6.72199">
        <ele>1983.4</ele>
        <time>2019-12-10T11:16:24Z</time>
      </trkpt>
      <trkpt lat="44.83695" lon="6.72228">
        <ele>1979.2</ele>
        <time>2019-12-10T11:17:22Z</time>
      </trkpt>
      <trkpt lat="44.83718" lon="6.72236">
        <ele>1978.3</ele>
        <time>2019-12-10T11:17:46Z</time>
      </trkpt>
      <trkpt lat="44.83744" lon="6.72241">
        <ele>1972.9</ele>
        <time>2019-12-10T11:18:13Z</time>
      </trkpt>
      <trkpt lat="44.83754" lon="6.72241">
        <ele>1973.5</ele>
        <time>2019-12-10T11:18:23Z</time>
      </trkpt>
      <trkpt lat="44.83765" lon="6.72246">
        <ele>1975.9</ele>
        <time>2019-12-10T11:18:35Z</time>
      </trkpt>
      <trkpt lat="44.83765" lon="6.72258">
        <ele>1961.1</ele>
        <time>2019-12-10T11:18:44Z</time>
      </trkpt>
      <trkpt lat="44.83759" lon="6.72263">
        <ele>1961.1</ele>
        <time>2019-12-10T11:18:51Z</time>
      </trkpt>
      <trkpt lat="44.83737" lon="6.72264">
        <ele>1961.4</ele>
        <time>2019-12-10T11:19:14Z</time>
      </trkpt>
      <trkpt lat="44.83716" lon="6.72265">
        <ele>1959.9</ele>
        <time>2019-12-10T11:19:36Z</time>
      </trkpt>
      <trkpt lat="44.83675" lon="6.72265">
        <ele>1962.1</ele>
        <time>2019-12-10T11:20:18Z</time>
      </trkpt>
      <trkpt lat="44.83655" lon="6.72264">
        <ele>1965.4</ele>
        <time>2019-12-10T11:20:39Z</time>
      </trkpt>
      <trkpt lat="44.83644" lon="6.72268">
        <ele>1965.1</ele>
        <time>2019-12-10T11:20:50Z</time>
      </trkpt>
      <trkpt lat="44.83641" lon="6.7228">
        <ele>1964.3</ele>
        <time>2019-12-10T11:21:00Z</time>
      </trkpt>
      <trkpt lat="44.83645" lon="6.72287">
        <ele>1963.5</ele>
        <time>2019-12-10T11:21:06Z</time>
      </trkpt>
      <trkpt lat="44.83668" lon="6.72297">
        <ele>1957</ele>
        <time>2019-12-10T11:21:31Z</time>
      </trkpt>
      <trkpt lat="44.83686" lon="6.72301">
        <ele>1956.3</ele>
        <time>2019-12-10T11:21:50Z</time>
      </trkpt>
      <trkpt lat="44.83707" lon="6.72308">
        <ele>1955.1</ele>
        <time>2019-12-10T11:22:12Z</time>
      </trkpt>
      <trkpt lat="44.83718" lon="6.72315">
        <ele>1953.8</ele>
        <time>2019-12-10T11:22:24Z</time>
      </trkpt>
      <trkpt lat="44.83735" lon="6.72316">
        <ele>1951.7</ele>
        <time>2019-12-10T11:22:41Z</time>
      </trkpt>
      <trkpt lat="44.83748" lon="6.72323">
        <ele>1947.9</ele>
        <time>2019-12-10T11:22:55Z</time>
      </trkpt>
      <trkpt lat="44.83783" lon="6.72329">
        <ele>1949.2</ele>
        <time>2019-12-10T11:23:31Z</time>
      </trkpt>
      <trkpt lat="44.83799" lon="6.72339">
        <ele>1938.2</ele>
        <time>2019-12-10T11:23:49Z</time>
      </trkpt>
      <trkpt lat="44.83815" lon="6.72346">
        <ele>1937.5</ele>
        <time>2019-12-10T11:24:07Z</time>
      </trkpt>
      <trkpt lat="44.83829" lon="6.72351">
        <ele>1937.1</ele>
        <time>2019-12-10T11:24:21Z</time>
      </trkpt>
      <trkpt lat="44.83844" lon="6.72353">
        <ele>1932.7</ele>
        <time>2019-12-10T11:24:36Z</time>
      </trkpt>
      <trkpt lat="44.83881" lon="6.72341">
        <ele>1930.7</ele>
        <time>2019-12-10T11:25:16Z</time>
      </trkpt>
      <trkpt lat="44.8391" lon="6.72334">
        <ele>1930.6</ele>
        <time>2019-12-10T11:25:46Z</time>
      </trkpt>
      <trkpt lat="44.83934" lon="6.72339">
        <ele>1925.3</ele>
        <time>2019-12-10T11:26:11Z</time>
      </trkpt>
      <trkpt lat="44.84002" lon="6.72342">
        <ele>1917.9</ele>
        <time>2019-12-10T11:27:22Z</time>
      </trkpt>
      <trkpt lat="44.84073" lon="6.72352">
        <ele>1913</ele>
        <time>2019-12-10T11:28:37Z</time>
      </trkpt>
      <trkpt lat="44.84151" lon="6.72373">
        <ele>1901</ele>
        <time>2019-12-10T11:29:59Z</time>
      </trkpt>
      <trkpt lat="44.84193" lon="6.72373">
        <ele>1894.1</ele>
        <time>2019-12-10T11:30:43Z</time>
      </trkpt>
      <trkpt lat="44.84222" lon="6.72378">
        <ele>1891.7</ele>
        <time>2019-12-10T11:31:14Z</time>
      </trkpt>
      <trkpt lat="44.84268" lon="6.72366">
        <ele>1887.5</ele>
        <time>2019-12-10T11:32:02Z</time>
      </trkpt>
      <trkpt lat="44.8429" lon="6.72365">
        <ele>1886.2</ele>
        <time>2019-12-10T11:32:25Z</time>
      </trkpt>
      <trkpt lat="44.84314" lon="6.7237">
        <ele>1884.6</ele>
        <time>2019-12-10T11:32:50Z</time>
      </trkpt>
      <trkpt lat="44.84322" lon="6.72372">
        <ele>1883.9</ele>
        <time>2019-12-10T11:32:58Z</time>
      </trkpt>
      <trkpt lat="44.8439" lon="6.72358">
        <ele>1880.7</ele>
        <time>2019-12-10T11:34:10Z</time>
      </trkpt>
      <trkpt lat="44.84436" lon="6.72361">
        <ele>1877.5</ele>
        <time>2019-12-10T11:34:58Z</time>
      </trkpt>
      <trkpt lat="44.8446" lon="6.7237">
        <ele>1874.9</ele>
        <time>2019-12-10T11:35:24Z</time>
      </trkpt>
      <trkpt lat="44.84493" lon="6.72406">
        <ele>1867.4</ele>
        <time>2019-12-10T11:36:07Z</time>
      </trkpt>
      <trkpt lat="44.84509" lon="6.72421">
        <ele>1860.6</ele>
        <time>2019-12-10T11:36:26Z</time>
      </trkpt>
      <trkpt lat="44.84543" lon="6.72428">
        <ele>1858.1</ele>
        <time>2019-12-10T11:37:01Z</time>
      </trkpt>
      <trkpt lat="44.84545" lon="6.7244">
        <ele>1857.2</ele>
        <time>2019-12-10T11:37:10Z</time>
      </trkpt>
      <trkpt lat="44.84541" lon="6.72451">
        <ele>1856.2</ele>
        <time>2019-12-10T11:37:19Z</time>
      </trkpt>
      <trkpt lat="44.84514" lon="6.72451">
        <ele>1856.3</ele>
        <time>2019-12-10T11:37:47Z</time>
      </trkpt>
      <trkpt lat="44.84491" lon="6.72443">
        <ele>1857.1</ele>
        <time>2019-12-10T11:38:11Z</time>
      </trkpt>
      <trkpt lat="44.84475" lon="6.72441">
        <ele>1856.7</ele>
        <time>2019-12-10T11:38:28Z</time>
      </trkpt>
      <trkpt lat="44.84448" lon="6.72426">
        <ele>1857.4</ele>
        <time>2019-12-10T11:38:58Z</time>
      </trkpt>
      <trkpt lat="44.84428" lon="6.72417">
        <ele>1859.1</ele>
        <time>2019-12-10T11:39:20Z</time>
      </trkpt>
      <trkpt lat="44.84417" lon="6.72425">
        <ele>1859.4</ele>
        <time>2019-12-10T11:39:32Z</time>
      </trkpt>
      <trkpt lat="44.84417" lon="6.72438">
        <ele>1857.5</ele>
        <time>2019-12-10T11:39:41Z</time>
      </trkpt>
      <trkpt lat="44.84421" lon="6.72452">
        <ele>1855.9</ele>
        <time>2019-12-10T11:39:52Z</time>
      </trkpt>
      <trkpt lat="44.84437" lon="6.72454">
        <ele>1855.5</ele>
        <time>2019-12-10T11:40:08Z</time>
      </trkpt>
      <trkpt lat="44.84461" lon="6.72466">
        <ele>1854.3</ele>
        <time>2019-12-10T11:40:34Z</time>
      </trkpt>
      <trkpt lat="44.84509" lon="6.72501">
        <ele>1845</ele>
        <time>2019-12-10T11:41:31Z</time>
      </trkpt>
      <trkpt lat="44.84564" lon="6.72553">
        <ele>1841.9</ele>
        <time>2019-12-10T11:42:40Z</time>
      </trkpt>
      <trkpt lat="44.84624" lon="6.72575">
        <ele>1839.8</ele>
        <time>2019-12-10T11:43:45Z</time>
      </trkpt>
      <trkpt lat="44.84669" lon="6.72559">
        <ele>1836.6</ele>
        <time>2019-12-10T11:44:33Z</time>
      </trkpt>
      <trkpt lat="44.84705" lon="6.72532">
        <ele>1835.4</ele>
        <time>2019-12-10T11:45:15Z</time>
      </trkpt>
      <trkpt lat="44.84737" lon="6.72504">
        <ele>1829.6</ele>
        <time>2019-12-10T11:45:55Z</time>
      </trkpt>
      <trkpt lat="44.84772" lon="6.72483">
        <ele>1828.3</ele>
        <time>2019-12-10T11:46:34Z</time>
      </trkpt>
      <trkpt lat="44.84858" lon="6.72478">
        <ele>1817.8</ele>
        <time>2019-12-10T11:48:04Z</time>
      </trkpt>
      <trkpt lat="44.84889" lon="6.7248">
        <ele>1815.2</ele>
        <time>2019-12-10T11:48:36Z</time>
      </trkpt>
      <trkpt lat="44.84962" lon="6.72485">
        <ele>1806.9</ele>
        <time>2019-12-10T11:49:53Z</time>
      </trkpt>
      <trkpt lat="44.84978" lon="6.7249">
        <ele>1804.7</ele>
        <time>2019-12-10T11:50:10Z</time>
      </trkpt>
      <trkpt lat="44.8502" lon="6.72514">
        <ele>1793.3</ele>
        <time>2019-12-10T11:50:57Z</time>
      </trkpt>
      <trkpt lat="44.85043" lon="6.72513">
        <ele>1791.1</ele>
        <time>2019-12-10T11:51:20Z</time>
      </trkpt>
      <trkpt lat="44.8506" lon="6.72507">
        <ele>1789.2</ele>
        <time>2019-12-10T11:51:38Z</time>
      </trkpt>
      <trkpt lat="44.85117" lon="6.7248">
        <ele>1785.3</ele>
        <time>2019-12-10T11:52:41Z</time>
      </trkpt>
      <trkpt lat="44.85193" lon="6.72466">
        <ele>1774.9</ele>
        <time>2019-12-10T11:54:02Z</time>
      </trkpt>
      <trkpt lat="44.85243" lon="6.7246">
        <ele>1773.6</ele>
        <time>2019-12-10T11:54:54Z</time>
      </trkpt>
      <trkpt lat="44.85255" lon="6.72462">
        <ele>1770.8</ele>
        <time>2019-12-10T11:55:07Z</time>
      </trkpt>
      <trkpt lat="44.85296" lon="6.72465">
        <ele>1770.7</ele>
        <time>2019-12-10T11:55:49Z</time>
      </trkpt>
      <trkpt lat="44.85347" lon="6.72526">
        <ele>1761.8</ele>
        <time>2019-12-10T11:56:59Z</time>
      </trkpt>
      <trkpt lat="44.854" lon="6.726">
        <ele>1754.7</ele>
        <time>2019-12-10T11:58:18Z</time>
      </trkpt>
      <trkpt lat="44.85439" lon="6.72687">
        <ele>1751.4</ele>
        <time>2019-12-10T11:59:34Z</time>
      </trkpt>
      <trkpt lat="44.85488" lon="6.72718">
        <ele>1750.2</ele>
        <time>2019-12-10T12:00:30Z</time>
      </trkpt>
      <trkpt lat="44.85543" lon="6.72725">
        <ele>1747.7</ele>
        <time>2019-12-10T12:01:27Z</time>
      </trkpt>
      <trkpt lat="44.8558" lon="6.72708">
        <ele>1747.3</ele>
        <time>2019-12-10T12:02:08Z</time>
      </trkpt>
      <trkpt lat="44.85621" lon="6.72681">
        <ele>1745.1</ele>
        <time>2019-12-10T12:02:54Z</time>
      </trkpt>
      <trkpt lat="44.85637" lon="6.72657">
        <ele>1745.9</ele>
      </trkpt>
      <trkpt lat="44.8564" lon="6.72654">
        <ele>1745.8</ele>
      </trkpt>
      <trkpt lat="44.85634" lon="6.72639">
        <ele>1746.4</ele>
      </trkpt>
      <trkpt lat="44.8562" lon="6.72625">
        <ele>1747.1</ele>
      </trkpt>
    </trkseg>
  </trk>
</gpx>